Time;durP1;ratioP1;P1;durP2;ratioP2;P2;SDS_P1;SDS_P2;PMS_P1;PMS_P2;Temp;Humidity;BMP_temperature;BMP_pressure;BME280_temperature;BME280_humidity;BME280_pressure;Samples;Min_cycle;Max_cycle;Signal;HPM_P1;HPM_P2
2022/07/30 00:02:24;;;;;;;5.70;5.20;;;18.30;99.90;;;;;;4991126;28;20831;-64
2022/07/30 00:04:49;;;;;;;5.73;5.27;;;18.30;99.90;;;;;;5010497;28;20674;-63
2022/07/30 00:07:15;;;;;;;5.33;4.93;;;18.30;99.90;;;;;;5006684;28;20219;-64
2022/07/30 00:09:41;;;;;;;5.20;4.50;;;18.40;99.90;;;;;;5007113;28;20193;-64
2022/07/30 00:12:07;;;;;;;5.00;4.60;;;18.40;99.90;;;;;;5008671;28;20735;-64
2022/07/30 00:14:34;;;;;;;5.35;4.88;;;18.40;99.90;;;;;;5006047;28;20442;-63
2022/07/30 00:17:00;;;;;;;6.45;4.90;;;18.40;99.90;;;;;;5021297;28;20195;-63
2022/07/30 00:19:27;;;;;;;6.00;5.50;;;18.40;99.90;;;;;;4994731;28;20282;-63
2022/07/30 00:21:56;;;;;;;5.15;4.75;;;18.40;99.90;;;;;;5004314;28;20241;-63
2022/07/30 00:24:22;;;;;;;6.40;5.90;;;18.40;99.90;;;;;;5008582;28;20186;-63
2022/07/30 00:26:48;;;;;;;5.90;5.30;;;18.40;99.90;;;;;;5008366;28;20253;-64
2022/07/30 00:29:15;;;;;;;6.10;5.50;;;18.30;99.90;;;;;;4991548;28;20651;-63
2022/07/30 00:31:40;;;;;;;5.95;5.45;;;18.30;99.90;;;;;;5009934;28;20250;-62
2022/07/30 00:34:06;;;;;;;5.77;5.20;;;18.20;99.90;;;;;;5010375;28;20214;-63
2022/07/30 00:36:32;;;;;;;5.10;4.70;;;18.20;99.90;;;;;;5007901;28;20265;-65
2022/07/30 00:38:58;;;;;;;5.20;4.80;;;18.30;99.90;;;;;;5012819;28;20191;-63
2022/07/30 00:41:24;;;;;;;6.70;5.33;;;18.30;99.90;;;;;;5012363;28;20187;-64
2022/07/30 00:43:51;;;;;;;6.50;5.32;;;18.30;99.90;;;;;;5010675;28;20205;-63
2022/07/30 00:46:17;;;;;;;5.28;4.88;;;18.20;99.90;;;;;;5011321;28;20209;-63
2022/07/30 00:48:44;;;;;;;5.17;4.87;;;18.50;99.90;;;;;;5013668;28;20232;-63
2022/07/30 00:51:10;;;;;;;5.47;4.97;;;18.30;99.90;;;;;;5010731;28;21061;-63
2022/07/30 00:53:36;;;;;;;6.82;5.20;;;18.30;99.90;;;;;;5013597;28;20214;-65
2022/07/30 00:56:03;;;;;;;8.60;5.50;;;18.30;99.90;;;;;;5012587;28;20648;-63
2022/07/30 00:58:29;;;;;;;6.70;5.93;;;18.00;99.90;;;;;;5011830;28;20449;-64
2022/07/30 01:00:55;;;;;;;5.77;5.10;;;18.30;99.90;;;;;;4994247;28;20695;-63
2022/07/30 01:03:20;;;;;;;5.30;4.60;;;18.70;99.90;;;;;;5013414;28;20438;-63
2022/07/30 01:05:46;;;;;;;5.73;5.33;;;18.50;99.90;;;;;;5009088;28;20258;-63
2022/07/30 01:08:12;;;;;;;6.63;5.70;;;18.50;99.90;;;;;;5013168;28;20962;-63
2022/07/30 01:10:38;;;;;;;5.60;5.07;;;18.50;99.90;;;;;;5013252;28;20273;-63
2022/07/30 01:13:05;;;;;;;6.07;5.57;;;18.70;99.90;;;;;;5012729;28;20206;-64
2022/07/30 01:15:31;;;;;;;6.85;5.40;;;18.80;99.90;;;;;;5009470;28;20522;-63
2022/07/30 01:18:00;;;;;;;5.93;5.53;;;18.80;99.90;;;;;;4994297;28;20198;-64
2022/07/30 01:20:47;;;;;;;6.00;5.50;;;18.90;99.90;;;;;;5004530;28;20175;-65
2022/07/30 01:23:33;;;;;;;6.00;5.60;;;18.80;99.90;;;;;;5011204;28;20205;-63
2022/07/30 01:26:06;;;;;;;5.80;5.40;;;18.70;99.90;;;;;;5012944;28;20224;-63
2022/07/30 01:28:36;;;;;;;6.18;5.57;;;18.70;99.90;;;;;;5012892;28;20286;-62
2022/07/30 01:31:03;;;;;;;5.97;5.47;;;18.50;99.90;;;;;;5008036;28;20294;-63
2022/07/30 01:33:30;;;;;;;5.53;5.13;;;18.80;99.90;;;;;;4995127;28;20241;-62
2022/07/30 01:35:58;;;;;;;5.30;4.90;;;18.40;99.90;;;;;;5013077;28;20206;-63
2022/07/30 01:38:25;;;;;;;5.43;5.00;;;18.50;99.90;;;;;;5012056;28;20199;-62
2022/07/30 01:40:53;;;;;;;6.10;5.50;;;18.40;99.90;;;;;;5011178;28;20205;-62
2022/07/30 01:43:21;;;;;;;6.85;6.30;;;18.30;99.90;;;;;;5008706;28;20195;-62
2022/07/30 01:45:48;;;;;;;5.55;5.10;;;18.50;99.90;;;;;;5011266;28;20236;-64
2022/07/30 01:48:17;;;;;;;6.40;5.47;;;18.30;99.90;;;;;;5011692;28;20316;-62
2022/07/30 01:50:45;;;;;;;5.82;5.40;;;18.30;99.90;;;;;;5010441;28;20194;-63
2022/07/30 01:53:18;;;;;;;6.05;5.60;;;18.20;99.90;;;;;;5012629;28;20241;-62
2022/07/30 01:55:45;;;;;;;6.07;5.50;;;18.10;99.90;;;;;;5012463;28;20186;-63
2022/07/30 01:58:13;;;;;;;6.35;5.80;;;18.10;99.90;;;;;;5010524;28;20199;-63
2022/07/30 02:00:42;;;;;;;6.07;5.65;;;18.10;99.90;;;;;;5009764;28;20543;-63
2022/07/30 02:03:10;;;;;;;6.25;5.75;;;18.10;99.90;;;;;;5012343;28;20195;-63
2022/07/30 02:05:37;;;;;;;5.97;5.57;;;18.10;99.90;;;;;;5008127;28;20214;-63
2022/07/30 02:08:30;;;;;;;5.78;5.20;;;18.00;99.90;;;;;;5005364;28;20220;-62
2022/07/30 02:14:32;;;;;;;6.68;6.07;;;18.00;99.90;;;;;;5006884;28;20194;-62
2022/07/30 02:17:01;;;;;;;6.50;6.00;;;18.00;99.90;;;;;;5010977;28;20206;-63
2022/07/30 02:19:42;;;;;;;6.88;6.30;;;18.00;99.90;;;;;;5010530;28;20187;-65
2022/07/30 02:22:12;;;;;;;6.82;6.22;;;17.80;99.90;;;;;;5007321;28;20245;-63
2022/07/30 02:24:41;;;;;;;6.30;5.80;;;17.80;99.90;;;;;;5012076;28;20880;-62
2022/07/30 02:27:12;;;;;;;6.10;5.70;;;17.70;99.90;;;;;;5011446;28;20262;-62
2022/07/30 02:29:40;;;;;;;7.05;5.80;;;17.50;99.90;;;;;;5010528;28;20202;-62
2022/07/30 02:32:09;;;;;;;5.80;5.40;;;17.60;99.90;;;;;;5011856;28;20246;-62
2022/07/30 02:34:38;;;;;;;6.50;6.00;;;16.90;99.90;;;;;;5011782;28;20236;-62
2022/07/30 02:37:07;;;;;;;6.35;5.85;;;17.60;99.90;;;;;;5002487;28;20202;-62
2022/07/30 02:39:34;;;;;;;6.40;5.80;;;17.60;99.90;;;;;;5010222;28;20529;-62
2022/07/30 02:42:02;;;;;;;6.70;6.20;;;17.90;99.90;;;;;;5011287;28;20209;-62
2022/07/30 02:44:29;;;;;;;6.40;5.80;;;17.50;99.90;;;;;;5007489;28;20179;-63
2022/07/30 02:46:56;;;;;;;6.13;5.63;;;17.50;99.90;;;;;;5007351;28;20688;-62
2022/07/30 02:49:23;;;;;;;6.60;6.00;;;17.50;99.90;;;;;;5011549;28;20236;-62
2022/07/30 02:51:50;;;;;;;6.32;5.90;;;17.40;99.90;;;;;;5010047;28;20214;-62
2022/07/30 02:54:18;;;;;;;6.78;6.18;;;17.40;99.90;;;;;;5011228;28;20182;-64
2022/07/30 02:56:48;;;;;;;6.00;5.60;;;17.70;99.90;;;;;;5010565;28;20291;-63
2022/07/30 02:59:15;;;;;;;6.90;5.70;;;17.40;99.90;;;;;;5003455;28;20220;-62
2022/07/30 03:01:42;;;;;;;6.65;6.05;;;17.40;99.90;;;;;;5007755;28;20190;-62
2022/07/30 03:04:09;;;;;;;6.70;6.18;;;17.40;99.90;;;;;;5007526;28;20186;-62
2022/07/30 03:06:35;;;;;;;6.97;6.47;;;17.30;99.90;;;;;;5007941;28;20217;-63
2022/07/30 03:09:03;;;;;;;6.60;6.10;;;17.40;99.90;;;;;;5007590;28;20206;-63
2022/07/30 03:11:29;;;;;;;5.97;5.57;;;17.30;99.90;;;;;;5010730;28;20418;-62
2022/07/30 03:13:55;;;;;;;6.65;6.18;;;17.20;99.90;;;;;;5011382;28;20197;-63
2022/07/30 03:16:23;;;;;;;6.87;6.37;;;17.20;99.90;;;;;;5006404;28;20178;-64
2022/07/30 03:18:50;;;;;;;6.97;6.47;;;17.20;99.90;;;;;;5009972;28;20433;-62
2022/07/30 03:21:18;;;;;;;6.55;6.05;;;17.30;99.90;;;;;;5008691;28;20191;-63
2022/07/30 03:23:46;;;;;;;6.63;6.07;;;17.20;99.90;;;;;;5010986;28;20210;-63
2022/07/30 03:26:13;;;;;;;6.80;6.30;;;17.10;99.90;;;;;;5010525;28;20277;-62
2022/07/30 03:28:41;;;;;;;6.53;5.93;;;17.10;99.90;;;;;;5008784;28;20558;-62
2022/07/30 03:31:09;;;;;;;7.03;6.20;;;17.10;99.90;;;;;;5011094;28;20235;-62
2022/07/30 03:33:35;;;;;;;6.70;6.20;;;17.10;99.90;;;;;;5011145;28;20210;-63
2022/07/30 03:36:03;;;;;;;7.45;6.75;;;17.30;99.90;;;;;;5006923;28;20182;-62
2022/07/30 03:38:29;;;;;;;6.43;6.03;;;17.10;99.90;;;;;;5010061;28;20202;-63
2022/07/30 03:40:55;;;;;;;6.60;6.10;;;17.10;99.90;;;;;;5009431;28;20257;-64
2022/07/30 03:43:21;;;;;;;6.25;5.75;;;17.30;99.90;;;;;;5010793;28;20270;-63
2022/07/30 03:45:48;;;;;;;7.13;6.53;;;17.00;99.90;;;;;;5009805;28;20621;-62
2022/07/30 03:48:14;;;;;;;7.30;6.80;;;17.40;99.90;;;;;;5008643;28;20465;-62
2022/07/30 03:50:41;;;;;;;7.50;6.90;;;17.00;99.90;;;;;;4990991;28;20520;-62
2022/07/30 03:53:08;;;;;;;7.70;7.05;;;16.80;99.90;;;;;;5010594;28;20462;-62
2022/07/30 03:55:34;;;;;;;7.40;6.80;;;16.90;99.90;;;;;;5010832;28;20266;-62
2022/07/30 03:58:05;;;;;;;6.68;6.13;;;16.90;99.90;;;;;;5006977;28;20195;-63
2022/07/30 04:00:31;;;;;;;6.65;6.10;;;16.80;99.90;;;;;;5003660;28;20750;-63
2022/07/30 04:02:57;;;;;;;6.90;6.30;;;17.30;99.90;;;;;;5009978;28;21006;-62
2022/07/30 04:05:22;;;;;;;6.87;6.33;;;16.90;99.90;;;;;;5008102;28;20198;-63
2022/07/30 04:07:48;;;;;;;6.67;6.10;;;17.00;99.90;;;;;;5008383;28;20214;-62
2022/07/30 04:10:15;;;;;;;7.80;7.10;;;17.00;99.90;;;;;;5010170;28;20213;-62
2022/07/30 04:12:40;;;;;;;6.95;6.45;;;16.90;99.90;;;;;;5011823;28;20476;-63
2022/07/30 04:15:07;;;;;;;7.27;6.57;;;16.70;99.90;;;;;;5009531;28;20722;-62
2022/07/30 04:17:41;;;;;;;6.43;5.97;;;17.00;99.90;;;;;;5013338;28;20449;-62
2022/07/30 04:20:12;;;;;;;6.68;6.18;;;16.90;99.90;;;;;;5012042;28;20678;-62
2022/07/30 04:22:39;;;;;;;7.00;6.30;;;17.00;99.90;;;;;;5011014;28;20194;-62
2022/07/30 04:25:07;;;;;;;6.43;5.93;;;16.70;99.90;;;;;;5014116;28;20191;-62
2022/07/30 04:27:34;;;;;;;6.85;6.25;;;16.90;99.90;;;;;;5013692;28;20203;-62
2022/07/30 04:30:00;;;;;;;6.75;6.18;;;16.80;99.90;;;;;;5012409;28;20222;-63
2022/07/30 04:32:27;;;;;;;6.90;6.13;;;16.90;99.90;;;;;;4995829;28;20203;-62
2022/07/30 04:34:54;;;;;;;7.45;6.85;;;16.70;99.90;;;;;;5012310;28;20191;-62
2022/07/30 04:37:22;;;;;;;8.05;6.20;;;17.10;99.90;;;;;;5008812;28;20289;-63
2022/07/30 04:39:52;;;;;;;6.63;6.15;;;16.70;99.90;;;;;;5011030;28;20187;-63
2022/07/30 04:42:19;;;;;;;7.45;6.57;;;16.90;99.90;;;;;;5012687;28;20191;-63
2022/07/30 04:44:44;;;;;;;6.10;5.65;;;16.90;99.90;;;;;;5004792;28;20191;-62
2022/07/30 04:47:10;;;;;;;6.93;6.43;;;16.90;99.90;;;;;;5012775;28;20280;-62
2022/07/30 04:49:37;;;;;;;7.20;6.50;;;17.00;99.90;;;;;;5012666;28;20683;-62
2022/07/30 04:52:04;;;;;;;6.70;6.15;;;16.70;99.90;;;;;;5007193;28;20203;-62
2022/07/30 04:54:39;;;;;;;6.25;5.70;;;16.90;99.90;;;;;;5013146;28;20188;-62
2022/07/30 04:57:06;;;;;;;6.70;6.10;;;17.00;99.90;;;;;;5011758;28;20217;-62
2022/07/30 04:59:35;;;;;;;6.22;5.65;;;17.00;99.90;;;;;;5002944;28;20601;-63
2022/07/30 05:02:03;;;;;;;6.80;5.90;;;17.10;99.90;;;;;;5010330;28;20182;-63
2022/07/30 05:04:31;;;;;;;6.78;6.20;;;17.10;99.90;;;;;;5003146;28;20341;-62
2022/07/30 05:06:58;;;;;;;6.55;6.00;;;17.10;99.90;;;;;;5012602;28;20210;-62
2022/07/30 05:09:24;;;;;;;8.68;7.22;;;17.20;99.90;;;;;;5014767;28;20543;-63
2022/07/30 05:11:54;;;;;;;6.30;5.80;;;17.20;99.90;;;;;;5012494;28;20210;-62
2022/07/30 05:14:21;;;;;;;6.18;5.68;;;17.30;99.90;;;;;;5007309;28;20334;-63
2022/07/30 05:16:46;;;;;;;6.43;5.97;;;17.40;99.90;;;;;;5012400;28;20207;-63
2022/07/30 05:19:12;;;;;;;6.10;5.60;;;17.60;99.90;;;;;;5008817;28;20186;-62
2022/07/30 05:21:38;;;;;;;6.93;6.20;;;17.40;99.90;;;;;;5009696;28;20178;-61
2022/07/30 05:24:04;;;;;;;6.07;5.57;;;17.50;99.90;;;;;;5013954;28;20543;-62
2022/07/30 05:26:29;;;;;;;7.03;6.32;;;17.60;99.90;;;;;;5014572;28;20214;-62
2022/07/30 05:28:55;;;;;;;7.00;6.40;;;17.60;99.90;;;;;;5016308;28;20239;-62
2022/07/30 05:31:21;;;;;;;6.43;5.90;;;17.60;99.90;;;;;;5011660;28;20171;-62
2022/07/30 05:33:46;;;;;;;6.50;6.00;;;18.10;99.90;;;;;;5015693;28;20214;-62
2022/07/30 05:36:12;;;;;;;6.70;6.10;;;17.90;99.90;;;;;;5011363;28;20556;-66
2022/07/30 05:38:38;;;;;;;8.67;6.47;;;17.90;99.90;;;;;;4995377;28;20222;-66
2022/07/30 05:41:03;;;;;;;7.73;6.60;;;18.10;99.90;;;;;;5012451;28;20214;-66
2022/07/30 05:43:29;;;;;;;6.80;6.20;;;18.30;99.90;;;;;;5010992;28;20183;-66
2022/07/30 05:45:54;;;;;;;7.43;6.80;;;18.40;99.90;;;;;;5014719;28;20723;-66
2022/07/30 05:48:20;;;;;;;6.30;5.80;;;18.50;99.90;;;;;;5012990;28;20211;-66
2022/07/30 05:50:45;;;;;;;6.60;6.10;;;18.60;99.90;;;;;;5015805;28;20237;-66
2022/07/30 05:53:11;;;;;;;6.93;6.33;;;18.80;99.90;;;;;;5012509;28;20293;-66
2022/07/30 05:55:37;;;;;;;7.03;6.40;;;19.00;99.90;;;;;;5009338;28;20652;-66
2022/07/30 05:58:02;;;;;;;6.20;5.80;;;19.20;99.90;;;;;;5019323;28;20714;-66
2022/07/30 06:00:28;;;;;;;7.20;6.13;;;19.40;99.90;;;;;;4992071;28;20321;-66
2022/07/30 06:02:53;;;;;;;6.03;5.50;;;19.60;99.90;;;;;;5016792;28;20229;-67
2022/07/30 06:05:19;;;;;;;6.17;5.77;;;19.80;99.90;;;;;;5008849;28;20187;-67
2022/07/30 06:07:45;;;;;;;7.07;6.53;;;20.00;99.90;;;;;;5011488;28;20286;-66
2022/07/30 06:10:10;;;;;;;6.03;5.63;;;20.20;99.90;;;;;;5010522;28;20190;-67
2022/07/30 06:12:36;;;;;;;7.50;5.97;;;20.20;99.90;;;;;;5016503;28;20217;-66
2022/07/30 06:15:02;;;;;;;5.67;5.20;;;20.20;99.90;;;;;;4987565;28;20187;-66
2022/07/30 06:17:28;;;;;;;7.57;5.50;;;20.40;99.90;;;;;;5015393;28;20213;-66
2022/07/30 06:19:53;;;;;;;6.23;5.73;;;20.50;99.90;;;;;;5013764;28;20175;-67
2022/07/30 06:22:19;;;;;;;5.60;5.20;;;20.60;99.90;;;;;;5009943;28;20187;-66
2022/07/30 06:24:44;;;;;;;6.17;5.57;;;20.80;99.60;;;;;;5012118;28;20179;-66
2022/07/30 06:27:10;;;;;;;6.00;5.40;;;20.90;99.20;;;;;;5011488;28;20202;-66
2022/07/30 06:29:36;;;;;;;5.90;5.27;;;21.00;98.90;;;;;;5010732;28;20195;-66
2022/07/30 06:32:02;;;;;;;6.22;5.63;;;21.00;98.60;;;;;;5010965;28;20195;-66
2022/07/30 06:34:28;;;;;;;5.23;4.83;;;21.10;99.30;;;;;;4995174;28;20607;-66
2022/07/30 06:36:53;;;;;;;6.07;5.67;;;21.20;98.50;;;;;;5006658;28;20449;-67
2022/07/30 06:39:19;;;;;;;5.90;5.40;;;21.40;98.90;;;;;;5011717;28;20175;-67
2022/07/30 06:41:45;;;;;;;6.13;5.63;;;21.50;97.90;;;;;;5011241;28;20183;-66
2022/07/30 06:44:11;;;;;;;6.00;5.47;;;21.70;97.70;;;;;;5008950;28;20180;-66
2022/07/30 06:46:36;;;;;;;5.80;5.40;;;21.80;97.80;;;;;;5011101;28;20282;-66
2022/07/30 06:49:02;;;;;;;6.63;6.03;;;21.90;97.60;;;;;;5011308;28;20899;-66
2022/07/30 06:51:28;;;;;;;6.63;5.87;;;21.90;97.20;;;;;;5009282;28;20699;-66
2022/07/30 06:53:53;;;;;;;6.40;5.87;;;22.00;96.50;;;;;;5011057;28;20469;-66
2022/07/30 06:56:19;;;;;;;6.53;5.93;;;22.20;96.00;;;;;;5011105;28;20743;-66
2022/07/30 06:58:45;;;;;;;5.93;5.43;;;22.40;94.90;;;;;;5011430;28;20189;-66
2022/07/30 07:01:13;;;;;;;6.20;5.60;;;22.50;94.40;;;;;;5009518;28;20206;-67
2022/07/30 07:03:39;;;;;;;7.13;6.50;;;22.70;94.50;;;;;;4992473;28;20192;-66
2022/07/30 07:06:05;;;;;;;6.00;5.60;;;22.70;94.20;;;;;;5012567;28;20526;-66
2022/07/30 07:08:30;;;;;;;5.90;5.30;;;22.90;93.50;;;;;;5015059;28;20298;-66
2022/07/30 07:10:56;;;;;;;5.80;5.30;;;23.30;93.50;;;;;;4995471;28;20190;-66
2022/07/30 07:13:22;;;;;;;5.50;5.10;;;24.40;91.40;;;;;;5014339;28;20215;-68
2022/07/30 07:15:48;;;;;;;5.27;4.80;;;26.30;86.40;;;;;;5013688;28;20442;-67
2022/07/30 07:18:14;;;;;;;6.87;4.93;;;27.70;78.10;;;;;;5014750;28;20213;-67
2022/07/30 07:20:39;;;;;;;5.67;5.17;;;29.90;69.50;;;;;;5011670;28;20515;-70
2022/07/30 07:23:05;;;;;;;6.33;5.30;;;31.60;61.10;;;;;;5016344;28;20442;-70
2022/07/30 07:25:30;;;;;;;6.73;5.63;;;33.70;55.80;;;;;;5008591;28;20209;-70
2022/07/30 07:27:56;;;;;;;6.67;5.20;;;34.50;51.30;;;;;;5015367;28;20518;-70
2022/07/30 07:30:22;;;;;;;6.10;5.60;;;35.20;49.40;;;;;;5007212;28;20203;-68
2022/07/30 07:32:47;;;;;;;5.17;4.77;;;36.40;45.70;;;;;;5009109;28;20862;-68
2022/07/30 07:35:13;;;;;;;7.13;5.97;;;36.50;45.80;;;;;;5014556;28;20546;-68
2022/07/30 07:37:38;;;;;;;6.93;6.27;;;35.50;44.10;;;;;;4991404;28;20648;-68
2022/07/30 07:40:05;;;;;;;5.23;4.73;;;35.40;44.50;;;;;;5010294;28;20237;-67
2022/07/30 07:42:30;;;;;;;5.73;5.20;;;35.70;45.20;;;;;;5010104;28;20860;-68
2022/07/30 07:44:56;;;;;;;6.47;5.70;;;38.00;42.50;;;;;;4989377;28;20454;-68
2022/07/30 07:47:21;;;;;;;5.90;5.40;;;36.00;40.70;;;;;;5013027;28;20281;-69
2022/07/30 07:49:47;;;;;;;5.30;4.90;;;36.00;41.30;;;;;;5018670;28;20186;-68
2022/07/30 07:52:12;;;;;;;6.53;5.77;;;36.40;41.50;;;;;;5009184;28;20214;-68
2022/07/30 07:54:38;;;;;;;4.10;3.80;;;38.20;40.50;;;;;;5010336;28;20186;-68
2022/07/30 07:57:06;;;;;;;5.33;4.93;;;38.80;38.50;;;;;;5009871;28;20256;-67
2022/07/30 07:59:33;;;;;;;4.33;4.00;;;38.70;38.10;;;;;;5004378;28;20178;-65
2022/07/30 08:01:58;;;;;;;4.73;4.43;;;40.30;36.30;;;;;;4987318;28;20438;-71
2022/07/30 08:04:24;;;;;;;4.60;4.20;;;40.70;33.70;;;;;;5009210;28;20446;-72
2022/07/30 08:06:50;;;;;;;4.77;4.47;;;39.70;33.00;;;;;;5005651;28;20217;-72
2022/07/30 08:09:15;;;;;;;6.07;4.50;;;39.90;33.90;;;;;;5010065;28;20281;-76
2022/07/30 08:11:41;;;;;;;4.40;4.00;;;39.60;33.50;;;;;;5010518;28;20591;-71
2022/07/30 08:14:06;;;;;;;4.77;4.40;;;37.10;35.70;;;;;;4993345;28;20183;-62
2022/07/30 08:16:32;;;;;;;5.27;4.87;;;37.20;36.20;;;;;;5005424;28;20216;-62
2022/07/30 08:18:57;;;;;;;4.70;4.33;;;37.90;35.90;;;;;;5008160;28;20189;-63
2022/07/30 08:21:23;;;;;;;5.17;4.80;;;37.50;34.40;;;;;;5013143;28;20229;-63
2022/07/30 08:23:48;;;;;;;4.60;4.20;;;37.50;36.10;;;;;;5016586;28;20728;-62
2022/07/30 08:26:14;;;;;;;5.80;5.30;;;35.50;37.10;;;;;;5007382;28;20656;-67
2022/07/30 08:28:42;;;;;;;4.50;4.20;;;34.60;38.50;;;;;;5003272;28;20661;-67
2022/07/30 08:31:08;;;;;;;4.73;3.97;;;34.50;39.50;;;;;;5005630;28;20210;-67
2022/07/30 08:33:34;;;;;;;4.27;3.97;;;35.10;39.50;;;;;;5004760;28;20470;-65
2022/07/30 08:36:00;;;;;;;4.57;4.00;;;36.80;38.00;;;;;;5006772;28;20432;-65
2022/07/30 08:38:26;;;;;;;3.90;3.60;;;36.60;37.00;;;;;;5013462;28;20779;-65
2022/07/30 08:40:54;;;;;;;5.07;4.40;;;38.00;36.70;;;;;;5011472;28;20442;-65
2022/07/30 08:43:20;;;;;;;4.13;3.80;;;37.10;36.20;;;;;;5007258;28;20608;-66
2022/07/30 08:45:47;;;;;;;4.57;4.10;;;38.20;35.30;;;;;;5009685;28;20452;-74
2022/07/30 08:48:14;;;;;;;4.60;3.97;;;39.10;33.90;;;;;;5006197;28;20458;-70
2022/07/30 08:50:39;;;;;;;4.67;4.17;;;39.50;32.80;;;;;;4992469;28;20434;-72
2022/07/30 08:53:05;;;;;;;4.13;3.87;;;38.10;32.90;;;;;;5009495;28;20470;-70
2022/07/30 08:55:31;;;;;;;8.33;4.20;;;38.00;33.20;;;;;;5009728;28;20266;-76
2022/07/30 08:57:57;;;;;;;5.30;4.17;;;36.80;33.60;;;;;;5008876;28;20449;-72
2022/07/30 09:00:22;;;;;;;7.30;6.17;;;35.10;36.00;;;;;;5010713;28;20207;-67
2022/07/30 09:02:48;;;;;;;4.83;4.30;;;32.80;40.30;;;;;;5014852;28;20187;-67
2022/07/30 09:05:13;;;;;;;4.37;4.07;;;33.50;39.50;;;;;;5009958;28;20277;-67
2022/07/30 09:07:40;;;;;;;4.90;4.50;;;32.40;40.70;;;;;;5008966;28;20242;-67
2022/07/30 09:10:08;;;;;;;7.47;4.00;;;32.40;40.80;;;;;;5010492;28;20732;-67
2022/07/30 09:12:34;;;;;;;4.50;4.10;;;32.90;40.90;;;;;;5012491;28;21015;-67
2022/07/30 09:15:08;;;;;;;4.70;4.30;;;34.00;40.00;;;;;;5012026;28;20445;-68
2022/07/30 09:17:46;;;;;;;5.40;5.00;;;33.30;38.70;;;;;;5009083;28;20465;-68
2022/07/30 09:20:12;;;;;;;4.30;4.00;;;32.20;41.10;;;;;;5022112;28;20533;-68
2022/07/30 09:22:44;;;;;;;5.63;4.30;;;32.90;41.10;;;;;;5008991;28;20556;-67
2022/07/30 09:25:09;;;;;;;4.47;4.03;;;32.80;41.60;;;;;;5008755;28;20190;-68
2022/07/30 09:27:48;;;;;;;4.33;3.93;;;33.50;40.50;;;;;;5012653;28;20517;-67
2022/07/30 09:30:15;;;;;;;4.20;3.90;;;32.70;40.40;;;;;;5005823;28;20197;-67
2022/07/30 09:32:48;;;;;;;5.77;5.20;;;33.90;40.70;;;;;;4994459;28;20468;-73
2022/07/30 09:35:14;;;;;;;5.90;4.50;;;34.90;38.20;;;;;;5011406;28;20438;-68
2022/07/30 09:37:39;;;;;;;4.73;4.33;;;36.00;37.50;;;;;;5009303;28;20465;-68
2022/07/30 09:40:16;;;;;;;4.07;3.77;;;36.70;36.20;;;;;;5010575;28;20823;-68
2022/07/30 09:42:43;;;;;;;4.03;3.47;;;35.30;36.60;;;;;;5013353;28;20186;-68
2022/07/30 09:45:11;;;;;;;4.50;4.00;;;34.50;38.00;;;;;;5014587;28;20490;-68
2022/07/30 09:47:39;;;;;;;5.70;3.83;;;35.70;37.70;;;;;;5017303;28;21323;-67
2022/07/30 09:50:15;;;;;;;5.47;3.50;;;37.50;35.00;;;;;;5016445;28;20464;-67
2022/07/30 09:52:44;;;;;;;3.20;3.00;;;37.20;33.20;;;;;;5014587;28;20457;-67
2022/07/30 09:55:10;;;;;;;3.60;3.40;;;37.40;33.20;;;;;;5016924;28;20425;-67
2022/07/30 09:57:54;;;;;;;3.90;3.60;;;36.80;33.40;;;;;;5009237;28;20458;-67
2022/07/30 10:00:22;;;;;;;5.43;5.03;;;37.60;33.10;;;;;;5009291;28;20563;-67
2022/07/30 10:02:50;;;;;;;5.07;3.90;;;37.40;33.40;;;;;;5011243;28;20934;-67
2022/07/30 10:05:19;;;;;;;3.80;3.50;;;37.40;33.10;;;;;;5013709;28;20451;-67
2022/07/30 10:07:59;;;;;;;3.10;2.90;;;38.20;32.50;;;;;;5014327;28;20531;-68
2022/07/30 10:10:30;;;;;;;5.60;3.57;;;38.10;32.20;;;;;;5011711;28;20614;-68
2022/07/30 10:13:01;;;;;;;5.13;4.20;;;37.60;32.90;;;;;;5013352;28;21228;-67
2022/07/30 10:15:33;;;;;;;3.93;3.37;;;36.90;32.30;;;;;;5009139;28;20540;-67
2022/07/30 10:17:59;;;;;;;3.00;2.67;;;37.20;33.00;;;;;;5011140;28;20437;-67
2022/07/30 10:20:26;;;;;;;5.97;3.57;;;37.90;32.30;;;;;;5011753;28;20461;-67
2022/07/30 10:22:52;;;;;;;3.43;3.17;;;37.50;32.80;;;;;;5015340;28;20433;-67
2022/07/30 10:25:19;;;;;;;3.80;3.50;;;35.20;33.70;;;;;;5016201;28;20449;-67
2022/07/30 10:27:45;;;;;;;3.60;3.30;;;33.70;37.10;;;;;;5019124;28;20465;-67
2022/07/30 10:30:11;;;;;;;3.30;3.10;;;32.40;38.80;;;;;;5011417;28;20817;-67
2022/07/30 10:32:37;;;;;;;4.07;3.73;;;31.70;40.20;;;;;;5016345;28;20548;-67
2022/07/30 10:35:04;;;;;;;3.60;2.83;;;31.30;41.30;;;;;;5010438;28;20185;-67
2022/07/30 10:37:32;;;;;;;4.40;3.43;;;30.70;41.50;;;;;;5009687;28;20490;-67
2022/07/30 10:40:16;;;;;;;4.67;3.23;;;30.20;42.50;;;;;;5016604;28;20440;-67
2022/07/30 10:43:07;;;;;;;3.63;3.33;;;30.00;42.40;;;;;;5017592;28;20805;-67
2022/07/30 10:45:46;;;;;;;3.77;3.37;;;29.20;43.30;;;;;;5008975;28;20514;-67
2022/07/30 10:48:11;;;;;;;4.53;4.00;;;29.00;44.70;;;;;;5015569;28;20454;-67
2022/07/30 10:50:52;;;;;;;4.93;3.80;;;28.50;45.40;;;;;;5011982;28;20435;-67
2022/07/30 10:53:38;;;;;;;6.30;3.43;;;28.40;46.70;;;;;;5008619;28;20211;-66
2022/07/30 10:56:18;;;;;;;7.20;3.63;;;28.20;46.10;;;;;;5009928;28;20463;-66
2022/07/30 10:59:04;;;;;;;3.20;2.90;;;28.10;46.00;;;;;;5016267;28;20445;-67
2022/07/30 11:01:48;;;;;;;3.93;2.90;;;28.30;46.40;;;;;;5008921;28;20440;-67
2022/07/30 11:04:19;;;;;;;3.30;3.10;;;28.60;45.70;;;;;;5007754;28;20807;-67
2022/07/30 11:06:45;;;;;;;4.63;3.60;;;28.70;45.50;;;;;;5009806;28;20492;-67
2022/07/30 11:09:39;;;;;;;4.67;3.30;;;28.50;45.50;;;;;;5014276;28;20541;-67
2022/07/30 11:12:07;;;;;;;3.40;3.10;;;28.90;45.60;;;;;;5008039;28;20475;-67
2022/07/30 11:14:44;;;;;;;3.10;2.80;;;29.80;45.10;;;;;;5010862;28;20898;-67
2022/07/30 11:17:11;;;;;;;5.77;4.37;;;30.60;43.10;;;;;;5007021;28;21136;-67
2022/07/30 11:20:05;;;;;;;6.10;2.97;;;30.10;42.40;;;;;;5012958;28;20457;-68
2022/07/30 11:22:43;;;;;;;7.07;3.70;;;31.90;40.60;;;;;;5008422;28;20487;-67
2022/07/30 11:25:31;;;;;;;3.90;2.73;;;31.30;41.20;;;;;;5006737;28;20440;-68
2022/07/30 11:27:59;;;;;;;4.60;4.07;;;31.70;39.70;;;;;;5017914;28;20462;-68
2022/07/30 11:30:27;;;;;;;3.93;3.63;;;31.60;42.10;;;;;;5008355;28;20454;-67
2022/07/30 11:33:19;;;;;;;4.33;2.50;;;31.30;41.50;;;;;;5014843;28;20461;-67
2022/07/30 11:36:04;;;;;;;4.67;4.37;;;30.40;40.90;;;;;;5012506;28;20777;-67
2022/07/30 11:38:56;;;;;;;5.90;5.50;;;29.80;42.20;;;;;;5011013;28;20455;-67
2022/07/30 11:41:22;;;;;;;4.93;3.40;;;29.50;43.20;;;;;;5001521;28;20492;-68
2022/07/30 11:44:37;;;;;;;3.60;3.30;;;29.50;43.80;;;;;;4998882;28;20441;-67
2022/07/30 11:47:04;;;;;;;3.70;3.23;;;30.30;43.10;;;;;;4991166;28;20475;-68
2022/07/30 11:49:34;;;;;;;3.63;3.33;;;30.40;42.60;;;;;;4992013;28;20468;-68
2022/07/30 11:52:00;;;;;;;3.77;3.40;;;30.70;43.10;;;;;;5010111;28;20445;-68
2022/07/30 11:54:26;;;;;;;3.60;3.30;;;30.80;42.30;;;;;;5015258;28;20441;-67
2022/07/30 11:56:58;;;;;;;3.50;3.20;;;30.50;42.80;;;;;;5009820;28;20235;-67
2022/07/30 11:59:23;;;;;;;4.17;3.53;;;30.20;43.30;;;;;;5004124;28;20505;-68
2022/07/30 12:01:55;;;;;;;3.90;3.60;;;29.80;43.90;;;;;;5010316;28;20451;-68
2022/07/30 12:04:21;;;;;;;4.63;4.10;;;29.90;44.50;;;;;;5017681;28;20665;-68
2022/07/30 12:06:47;;;;;;;4.13;3.60;;;29.50;45.10;;;;;;5008500;28;20459;-67
2022/07/30 12:09:27;;;;;;;5.00;4.60;;;29.30;44.30;;;;;;5006630;28;20245;-68
2022/07/30 12:11:53;;;;;;;3.20;3.00;;;29.30;45.00;;;;;;5012243;28;20513;-68
2022/07/30 12:14:19;;;;;;;3.40;3.10;;;29.30;44.00;;;;;;5014285;28;20447;-69
2022/07/30 12:16:49;;;;;;;3.37;3.07;;;29.30;43.90;;;;;;5014434;28;20554;-68
2022/07/30 12:19:15;;;;;;;4.70;3.20;;;29.30;43.80;;;;;;5013198;28;20183;-68
2022/07/30 12:21:40;;;;;;;6.30;3.60;;;29.50;44.60;;;;;;5011073;28;21022;-68
2022/07/30 12:24:07;;;;;;;2.83;2.63;;;29.50;43.30;;;;;;5013805;28;20557;-68
2022/07/30 12:26:33;;;;;;;5.23;3.80;;;29.60;43.10;;;;;;5017884;28;20282;-68
2022/07/30 12:29:02;;;;;;;3.47;2.80;;;29.50;43.70;;;;;;5007645;28;20969;-69
2022/07/30 12:31:28;;;;;;;3.10;2.80;;;29.50;43.00;;;;;;5005984;28;20954;-69
2022/07/30 12:33:57;;;;;;;3.00;2.77;;;29.40;43.90;;;;;;5014016;28;20588;-69
2022/07/30 12:36:31;;;;;;;2.97;2.77;;;29.60;43.60;;;;;;5007668;28;20462;-68
2022/07/30 12:38:58;;;;;;;3.10;2.80;;;29.60;43.60;;;;;;5014135;28;20460;-67
2022/07/30 12:41:50;;;;;;;3.27;2.97;;;29.60;43.60;;;;;;5016861;28;20449;-68
2022/07/30 12:44:37;;;;;;;3.23;2.93;;;29.00;43.10;;;;;;4991247;28;20445;-69
2022/07/30 12:47:04;;;;;;;3.03;2.77;;;28.70;44.70;;;;;;5012745;28;20962;-69
2022/07/30 12:49:31;;;;;;;4.03;3.30;;;28.90;43.00;;;;;;5010912;28;20460;-68
2022/07/30 12:51:57;;;;;;;2.80;2.50;;;29.00;43.70;;;;;;5010408;28;20450;-69
2022/07/30 12:54:23;;;;;;;2.53;2.33;;;29.00;43.30;;;;;;5020219;28;20440;-68
2022/07/30 12:57:00;;;;;;;3.63;2.97;;;29.10;43.30;;;;;;5013828;28;20298;-68
2022/07/30 12:59:26;;;;;;;4.43;3.40;;;28.90;44.40;;;;;;5019103;28;20455;-68